Terminal Aerodrome Forecast
Issued by NWS Shreveport, LA

Home | Current Version | Previous Version | Text Only | Print | Product List | Glossary On
Versions: 1 2 3 4 5 6 7 8 9 10 11 12 13 14 15 16
138
FTUS44 KSHV 190525
TAFELD
TAF
KELD 190525Z 1906/2006 00000KT P6SM SCT050
     FM190800 00000KT P6SM BKN050
     FM191500 18006KT P6SM OVC045
     FM200000 16004KT P6SM OVC040=

USA.gov is the U.S. government's official web portal to all federal, state and local government web resources and services.